sensor_id;sensor_type;location;lat;lon;timestamp;temperature;humidity
69901;DHT22;57183;50.930;5.406;2023-06-10T00:00:40;21.10;93.10
69901;DHT22;57183;50.930;5.406;2023-06-10T00:03:09;21.20;93.10
69901;DHT22;57183;50.930;5.406;2023-06-10T00:05:36;21.10;93.30
69901;DHT22;57183;50.930;5.406;2023-06-10T00:08:04;21.10;93.70
69901;DHT22;57183;50.930;5.406;2023-06-10T00:10:36;21.00;94.10
69901;DHT22;57183;50.930;5.406;2023-06-10T00:13:04;21.00;94.40
69901;DHT22;57183;50.930;5.406;2023-06-10T00:15:30;20.90;94.60
69901;DHT22;57183;50.930;5.406;2023-06-10T00:17:56;20.80;95.10
69901;DHT22;57183;50.930;5.406;2023-06-10T00:20:23;20.70;95.20
69901;DHT22;57183;50.930;5.406;2023-06-10T00:22:49;20.70;95.60
69901;DHT22;57183;50.930;5.406;2023-06-10T00:25:15;20.70;95.60
69901;DHT22;57183;50.930;5.406;2023-06-10T00:27:41;20.60;96.30
69901;DHT22;57183;50.930;5.406;2023-06-10T00:30:07;20.60;96.60
69901;DHT22;57183;50.930;5.406;2023-06-10T00:32:34;20.40;96.80
69901;DHT22;57183;50.930;5.406;2023-06-10T00:34:59;20.50;97.60
69901;DHT22;57183;50.930;5.406;2023-06-10T00:37:25;20.40;98.00
69901;DHT22;57183;50.930;5.406;2023-06-10T00:39:51;20.30;98.30
69901;DHT22;57183;50.930;5.406;2023-06-10T00:42:16;20.20;98.70
69901;DHT22;57183;50.930;5.406;2023-06-10T00:44:42;20.20;99.60
69901;DHT22;57183;50.930;5.406;2023-06-10T00:47:08;20.20;99.70
69901;DHT22;57183;50.930;5.406;2023-06-10T00:49:34;20.20;99.90
69901;DHT22;57183;50.930;5.406;2023-06-10T00:52:00;20.20;99.90
69901;DHT22;57183;50.930;5.406;2023-06-10T00:54:26;20.10;99.90
69901;DHT22;57183;50.930;5.406;2023-06-10T00:56:53;20.00;99.90
69901;DHT22;57183;50.930;5.406;2023-06-10T00:59:19;20.00;99.90
69901;DHT22;57183;50.930;5.406;2023-06-10T01:01:46;19.90;99.90
69901;DHT22;57183;50.930;5.406;2023-06-10T01:04:13;19.80;99.90
69901;DHT22;57183;50.930;5.406;2023-06-10T01:07:02;19.80;99.90
69901;DHT22;57183;50.930;5.406;2023-06-10T01:13:05;19.70;99.90
69901;DHT22;57183;50.930;5.406;2023-06-10T01:15:34;19.80;99.90
69901;DHT22;57183;50.930;5.406;2023-06-10T01:18:01;19.70;99.90
69901;DHT22;57183;50.930;5.406;2023-06-10T01:20:28;19.70;99.90
69901;DHT22;57183;50.930;5.406;2023-06-10T01:22:55;19.70;99.90
69901;DHT22;57183;50.930;5.406;2023-06-10T01:25:21;19.70;99.90
69901;DHT22;57183;50.930;5.406;2023-06-10T01:30:30;19.60;99.90
69901;DHT22;57183;50.930;5.406;2023-06-10T01:32:59;19.60;99.90
69901;DHT22;57183;50.930;5.406;2023-06-10T01:35:28;19.60;99.90
69901;DHT22;57183;50.930;5.406;2023-06-10T01:37:57;19.60;99.90
69901;DHT22;57183;50.930;5.406;2023-06-10T01:40:24;19.60;99.90
69901;DHT22;57183;50.930;5.406;2023-06-10T01:42:51;19.50;99.90
69901;DHT22;57183;50.930;5.406;2023-06-10T01:45:17;19.50;99.90
69901;DHT22;57183;50.930;5.406;2023-06-10T01:47:43;19.50;99.90
69901;DHT22;57183;50.930;5.406;2023-06-10T01:50:09;19.50;99.90
69901;DHT22;57183;50.930;5.406;2023-06-10T01:52:35;19.50;99.90
69901;DHT22;57183;50.930;5.406;2023-06-10T01:55:00;19.40;99.90
69901;DHT22;57183;50.930;5.406;2023-06-10T01:57:26;19.40;99.90
69901;DHT22;57183;50.930;5.406;2023-06-10T01:59:51;19.40;99.90
69901;DHT22;57183;50.930;5.406;2023-06-10T02:02:17;19.30;99.90
69901;DHT22;57183;50.930;5.406;2023-06-10T02:04:43;19.30;99.90
69901;DHT22;57183;50.930;5.406;2023-06-10T02:07:08;19.20;99.90
69901;DHT22;57183;50.930;5.406;2023-06-10T02:09:34;19.20;99.90
69901;DHT22;57183;50.930;5.406;2023-06-10T02:12:02;19.20;99.90
69901;DHT22;57183;50.930;5.406;2023-06-10T02:14:29;19.00;99.90
69901;DHT22;57183;50.930;5.406;2023-06-10T02:16:55;19.00;99.90
69901;DHT22;57183;50.930;5.406;2023-06-10T02:19:22;19.10;99.90
69901;DHT22;57183;50.930;5.406;2023-06-10T02:21:48;19.00;99.90
69901;DHT22;57183;50.930;5.406;2023-06-10T02:24:14;19.00;99.90
69901;DHT22;57183;50.930;5.406;2023-06-10T02:26:40;19.00;99.90
69901;DHT22;57183;50.930;5.406;2023-06-10T02:29:06;19.00;99.90
69901;DHT22;57183;50.930;5.406;2023-06-10T02:31:32;19.00;99.90
69901;DHT22;57183;50.930;5.406;2023-06-10T02:34:01;19.00;99.90
69901;DHT22;57183;50.930;5.406;2023-06-10T02:36:26;19.10;99.90
69901;DHT22;57183;50.930;5.406;2023-06-10T02:38:53;19.00;99.90
69901;DHT22;57183;50.930;5.406;2023-06-10T02:41:18;19.00;99.90
69901;DHT22;57183;50.930;5.406;2023-06-10T02:43:44;19.00;99.90
69901;DHT22;57183;50.930;5.406;2023-06-10T02:46:10;19.00;99.90
69901;DHT22;57183;50.930;5.406;2023-06-10T02:48:43;18.90;99.90
69901;DHT22;57183;50.930;5.406;2023-06-10T02:51:12;19.10;99.90
69901;DHT22;57183;50.930;5.406;2023-06-10T02:53:37;19.00;99.90
69901;DHT22;57183;50.930;5.406;2023-06-10T02:56:03;19.00;99.90
69901;DHT22;57183;50.930;5.406;2023-06-10T02:58:29;19.10;99.90
69901;DHT22;57183;50.930;5.406;2023-06-10T03:00:55;19.00;99.90
69901;DHT22;57183;50.930;5.406;2023-06-10T03:03:20;18.90;99.90
69901;DHT22;57183;50.930;5.406;2023-06-10T03:05:48;18.90;99.90
69901;DHT22;57183;50.930;5.406;2023-06-10T03:08:14;19.00;99.90
69901;DHT22;57183;50.930;5.406;2023-06-10T03:10:39;19.00;99.90
69901;DHT22;57183;50.930;5.406;2023-06-10T03:13:05;19.00;99.90
69901;DHT22;57183;50.930;5.406;2023-06-10T03:15:31;19.00;99.90
69901;DHT22;57183;50.930;5.406;2023-06-10T03:18:01;19.00;99.90
69901;DHT22;57183;50.930;5.406;2023-06-10T03:20:27;19.00;99.90
69901;DHT22;57183;50.930;5.406;2023-06-10T03:22:54;19.00;99.90
69901;DHT22;57183;50.930;5.406;2023-06-10T03:25:19;19.00;99.90
69901;DHT22;57183;50.930;5.406;2023-06-10T03:27:46;19.00;99.90
69901;DHT22;57183;50.930;5.406;2023-06-10T03:30:13;19.10;99.90
69901;DHT22;57183;50.930;5.406;2023-06-10T03:32:39;19.10;99.90
69901;DHT22;57183;50.930;5.406;2023-06-10T03:35:05;18.90;99.90
69901;DHT22;57183;50.930;5.406;2023-06-10T03:37:32;18.90;99.90
69901;DHT22;57183;50.930;5.406;2023-06-10T03:39:57;19.00;99.90
69901;DHT22;57183;50.930;5.406;2023-06-10T03:42:23;19.00;99.90
69901;DHT22;57183;50.930;5.406;2023-06-10T03:44:48;18.90;99.90
69901;DHT22;57183;50.930;5.406;2023-06-10T03:47:14;19.00;99.90
69901;DHT22;57183;50.930;5.406;2023-06-10T03:49:40;19.00;99.90
69901;DHT22;57183;50.930;5.406;2023-06-10T03:52:06;19.00;99.90
69901;DHT22;57183;50.930;5.406;2023-06-10T03:54:32;19.20;99.90
69901;DHT22;57183;50.930;5.406;2023-06-10T03:56:59;19.30;99.90
69901;DHT22;57183;50.930;5.406;2023-06-10T03:59:25;19.40;99.90
69901;DHT22;57183;50.930;5.406;2023-06-10T04:01:51;19.40;99.90
69901;DHT22;57183;50.930;5.406;2023-06-10T04:04:17;19.50;99.90
69901;DHT22;57183;50.930;5.406;2023-06-10T04:06:42;19.50;99.90
69901;DHT22;57183;50.930;5.406;2023-06-10T04:09:10;19.50;99.90
69901;DHT22;57183;50.930;5.406;2023-06-10T04:11:36;19.60;99.90
69901;DHT22;57183;50.930;5.406;2023-06-10T04:14:01;19.70;99.90
69901;DHT22;57183;50.930;5.406;2023-06-10T04:16:27;19.70;99.90
69901;DHT22;57183;50.930;5.406;2023-06-10T04:18:53;19.70;99.90
69901;DHT22;57183;50.930;5.406;2023-06-10T04:21:19;19.80;99.90
69901;DHT22;57183;50.930;5.406;2023-06-10T04:23:45;19.80;99.90
69901;DHT22;57183;50.930;5.406;2023-06-10T04:26:10;19.90;99.90
69901;DHT22;57183;50.930;5.406;2023-06-10T04:28:38;19.80;99.90
69901;DHT22;57183;50.930;5.406;2023-06-10T04:31:03;19.90;99.90
69901;DHT22;57183;50.930;5.406;2023-06-10T04:33:30;19.90;99.90
69901;DHT22;57183;50.930;5.406;2023-06-10T04:35:56;20.00;99.90
69901;DHT22;57183;50.930;5.406;2023-06-10T04:38:21;20.00;99.90
69901;DHT22;57183;50.930;5.406;2023-06-10T04:40:47;20.00;99.90
69901;DHT22;57183;50.930;5.406;2023-06-10T04:43:13;20.00;99.90
69901;DHT22;57183;50.930;5.406;2023-06-10T04:45:39;20.00;99.90
69901;DHT22;57183;50.930;5.406;2023-06-10T04:48:05;20.10;99.90
69901;DHT22;57183;50.930;5.406;2023-06-10T04:50:31;20.20;99.90
69901;DHT22;57183;50.930;5.406;2023-06-10T04:52:58;20.30;99.90
69901;DHT22;57183;50.930;5.406;2023-06-10T04:55:24;20.30;99.90
69901;DHT22;57183;50.930;5.406;2023-06-10T04:57:50;20.40;99.90
69901;DHT22;57183;50.930;5.406;2023-06-10T05:00:17;20.30;99.90
69901;DHT22;57183;50.930;5.406;2023-06-10T05:02:43;20.40;99.90
69901;DHT22;57183;50.930;5.406;2023-06-10T05:05:10;20.40;99.90
69901;DHT22;57183;50.930;5.406;2023-06-10T05:07:36;20.50;99.90
69901;DHT22;57183;50.930;5.406;2023-06-10T05:10:02;20.60;99.90
69901;DHT22;57183;50.930;5.406;2023-06-10T05:12:28;20.60;99.90
69901;DHT22;57183;50.930;5.406;2023-06-10T05:14:54;20.70;99.90
69901;DHT22;57183;50.930;5.406;2023-06-10T05:17:20;20.70;99.90
69901;DHT22;57183;50.930;5.406;2023-06-10T05:19:45;20.80;99.90
69901;DHT22;57183;50.930;5.406;2023-06-10T05:22:12;21.00;99.90
69901;DHT22;57183;50.930;5.406;2023-06-10T05:24:38;21.10;99.90
69901;DHT22;57183;50.930;5.406;2023-06-10T05:27:04;21.30;99.90
69901;DHT22;57183;50.930;5.406;2023-06-10T05:29:32;21.30;99.90
69901;DHT22;57183;50.930;5.406;2023-06-10T05:31:59;21.40;99.90
69901;DHT22;57183;50.930;5.406;2023-06-10T05:34:31;21.50;99.90
69901;DHT22;57183;50.930;5.406;2023-06-10T05:36:57;21.60;99.90
69901;DHT22;57183;50.930;5.406;2023-06-10T05:39:22;21.70;99.90
69901;DHT22;57183;50.930;5.406;2023-06-10T05:41:49;21.80;99.90
69901;DHT22;57183;50.930;5.406;2023-06-10T05:44:15;21.90;99.90
69901;DHT22;57183;50.930;5.406;2023-06-10T05:46:40;22.00;99.90
69901;DHT22;57183;50.930;5.406;2023-06-10T05:49:06;22.10;99.90
69901;DHT22;57183;50.930;5.406;2023-06-10T05:51:32;22.20;99.90
69901;DHT22;57183;50.930;5.406;2023-06-10T05:53:57;22.30;99.90
69901;DHT22;57183;50.930;5.406;2023-06-10T05:56:23;22.40;99.90
69901;DHT22;57183;50.930;5.406;2023-06-10T05:58:49;22.50;99.90
69901;DHT22;57183;50.930;5.406;2023-06-10T06:01:15;22.60;99.90
69901;DHT22;57183;50.930;5.406;2023-06-10T06:03:41;22.80;99.90
69901;DHT22;57183;50.930;5.406;2023-06-10T06:06:06;22.80;99.90
69901;DHT22;57183;50.930;5.406;2023-06-10T06:08:32;22.90;99.90
69901;DHT22;57183;50.930;5.406;2023-06-10T06:10:58;23.00;99.90
69901;DHT22;57183;50.930;5.406;2023-06-10T06:13:23;23.10;99.90
69901;DHT22;57183;50.930;5.406;2023-06-10T06:15:49;23.10;99.90
69901;DHT22;57183;50.930;5.406;2023-06-10T06:18:15;23.20;99.90
69901;DHT22;57183;50.930;5.406;2023-06-10T06:20:41;23.30;99.50
69901;DHT22;57183;50.930;5.406;2023-06-10T06:23:07;23.30;99.50
69901;DHT22;57183;50.930;5.406;2023-06-10T06:25:35;23.40;99.90
69901;DHT22;57183;50.930;5.406;2023-06-10T06:28:01;23.50;99.90
69901;DHT22;57183;50.930;5.406;2023-06-10T06:30:27;23.70;99.30
69901;DHT22;57183;50.930;5.406;2023-06-10T06:32:53;23.80;98.70
69901;DHT22;57183;50.930;5.406;2023-06-10T06:35:18;23.90;98.00
69901;DHT22;57183;50.930;5.406;2023-06-10T06:37:44;24.10;98.40
69901;DHT22;57183;50.930;5.406;2023-06-10T06:40:10;24.20;98.00
69901;DHT22;57183;50.930;5.406;2023-06-10T06:42:36;24.20;97.10
69901;DHT22;57183;50.930;5.406;2023-06-10T06:45:02;24.30;97.30
69901;DHT22;57183;50.930;5.406;2023-06-10T06:47:27;24.30;96.90
69901;DHT22;57183;50.930;5.406;2023-06-10T06:49:53;24.30;96.60
69901;DHT22;57183;50.930;5.406;2023-06-10T06:52:19;24.50;95.90
69901;DHT22;57183;50.930;5.406;2023-06-10T06:54:45;24.40;96.00
69901;DHT22;57183;50.930;5.406;2023-06-10T06:57:10;24.60;96.10
69901;DHT22;57183;50.930;5.406;2023-06-10T06:59:36;24.70;95.80
69901;DHT22;57183;50.930;5.406;2023-06-10T07:02:03;24.80;95.30
69901;DHT22;57183;50.930;5.406;2023-06-10T07:04:28;24.90;95.20
69901;DHT22;57183;50.930;5.406;2023-06-10T07:06:54;24.90;95.20
69901;DHT22;57183;50.930;5.406;2023-06-10T07:09:20;24.90;94.60
69901;DHT22;57183;50.930;5.406;2023-06-10T07:11:45;25.00;95.10
69901;DHT22;57183;50.930;5.406;2023-06-10T07:14:11;25.10;94.20
69901;DHT22;57183;50.930;5.406;2023-06-10T07:16:36;25.10;94.40
69901;DHT22;57183;50.930;5.406;2023-06-10T07:19:02;25.10;93.90
69901;DHT22;57183;50.930;5.406;2023-06-10T07:21:29;25.20;93.70
69901;DHT22;57183;50.930;5.406;2023-06-10T07:23:55;25.10;94.10
69901;DHT22;57183;50.930;5.406;2023-06-10T07:26:22;25.30;94.30
69901;DHT22;57183;50.930;5.406;2023-06-10T07:28:47;25.50;93.70
69901;DHT22;57183;50.930;5.406;2023-06-10T07:31:13;25.50;93.80
69901;DHT22;57183;50.930;5.406;2023-06-10T07:33:39;25.70;94.20
69901;DHT22;57183;50.930;5.406;2023-06-10T07:36:05;25.80;93.10
69901;DHT22;57183;50.930;5.406;2023-06-10T07:38:31;25.70;92.60
69901;DHT22;57183;50.930;5.406;2023-06-10T07:40:57;25.90;92.80
69901;DHT22;57183;50.930;5.406;2023-06-10T07:43:23;25.80;93.20
69901;DHT22;57183;50.930;5.406;2023-06-10T07:45:49;25.90;93.20
69901;DHT22;57183;50.930;5.406;2023-06-10T07:48:14;26.00;92.90
69901;DHT22;57183;50.930;5.406;2023-06-10T07:50:40;26.20;91.80
69901;DHT22;57183;50.930;5.406;2023-06-10T07:53:06;26.20;92.20
69901;DHT22;57183;50.930;5.406;2023-06-10T07:55:31;26.30;92.10
69901;DHT22;57183;50.930;5.406;2023-06-10T07:57:57;26.40;92.30
69901;DHT22;57183;50.930;5.406;2023-06-10T08:00:23;26.50;92.00
69901;DHT22;57183;50.930;5.406;2023-06-10T08:02:49;26.70;91.60
69901;DHT22;57183;50.930;5.406;2023-06-10T08:05:16;26.90;90.90
69901;DHT22;57183;50.930;5.406;2023-06-10T08:07:42;26.80;91.00
69901;DHT22;57183;50.930;5.406;2023-06-10T08:10:08;26.70;91.00
69901;DHT22;57183;50.930;5.406;2023-06-10T08:12:34;26.70;90.70
69901;DHT22;57183;50.930;5.406;2023-06-10T08:15:01;26.80;90.70
69901;DHT22;57183;50.930;5.406;2023-06-10T08:17:27;26.80;90.10
69901;DHT22;57183;50.930;5.406;2023-06-10T08:19:53;26.80;90.30
69901;DHT22;57183;50.930;5.406;2023-06-10T08:22:18;27.00;90.20
69901;DHT22;57183;50.930;5.406;2023-06-10T08:24:44;27.10;90.00
69901;DHT22;57183;50.930;5.406;2023-06-10T08:27:10;27.30;90.20
69901;DHT22;57183;50.930;5.406;2023-06-10T08:29:35;27.50;88.60
69901;DHT22;57183;50.930;5.406;2023-06-10T08:32:01;27.70;89.30
69901;DHT22;57183;50.930;5.406;2023-06-10T08:34:27;27.70;89.60
69901;DHT22;57183;50.930;5.406;2023-06-10T08:36:53;27.80;89.30
69901;DHT22;57183;50.930;5.406;2023-06-10T08:39:21;27.90;86.70
69901;DHT22;57183;50.930;5.406;2023-06-10T08:44:40;28.00;89.20
69901;DHT22;57183;50.930;5.406;2023-06-10T08:47:14;28.10;87.30
69901;DHT22;57183;50.930;5.406;2023-06-10T08:49:46;28.20;86.50
69901;DHT22;57183;50.930;5.406;2023-06-10T08:52:17;28.10;86.40
69901;DHT22;57183;50.930;5.406;2023-06-10T08:55:05;28.10;86.90
69901;DHT22;57183;50.930;5.406;2023-06-10T08:57:35;28.30;86.20
69901;DHT22;57183;50.930;5.406;2023-06-10T09:00:02;28.20;85.90
69901;DHT22;57183;50.930;5.406;2023-06-10T09:02:28;28.40;86.50
69901;DHT22;57183;50.930;5.406;2023-06-10T09:04:56;28.50;86.60
69901;DHT22;57183;50.930;5.406;2023-06-10T09:07:23;28.30;82.50
69901;DHT22;57183;50.930;5.406;2023-06-10T09:09:49;28.30;84.10
69901;DHT22;57183;50.930;5.406;2023-06-10T09:12:15;28.50;82.90
69901;DHT22;57183;50.930;5.406;2023-06-10T09:14:42;28.50;83.00
69901;DHT22;57183;50.930;5.406;2023-06-10T09:17:07;28.60;82.40
69901;DHT22;57183;50.930;5.406;2023-06-10T09:19:33;28.60;82.40
69901;DHT22;57183;50.930;5.406;2023-06-10T09:22:00;28.80;82.60
69901;DHT22;57183;50.930;5.406;2023-06-10T09:24:27;29.00;80.20
69901;DHT22;57183;50.930;5.406;2023-06-10T09:27:07;28.90;78.80
69901;DHT22;57183;50.930;5.406;2023-06-10T09:29:53;28.90;80.70
69901;DHT22;57183;50.930;5.406;2023-06-10T09:32:19;28.90;81.20
69901;DHT22;57183;50.930;5.406;2023-06-10T09:34:46;28.90;81.10
69901;DHT22;57183;50.930;5.406;2023-06-10T09:37:11;29.00;80.50
69901;DHT22;57183;50.930;5.406;2023-06-10T09:39:40;29.00;77.60
69901;DHT22;57183;50.930;5.406;2023-06-10T09:42:19;29.00;78.30
69901;DHT22;57183;50.930;5.406;2023-06-10T09:44:51;29.00;78.70
69901;DHT22;57183;50.930;5.406;2023-06-10T09:47:21;29.10;78.60
69901;DHT22;57183;50.930;5.406;2023-06-10T09:49:48;29.20;78.10
69901;DHT22;57183;50.930;5.406;2023-06-10T09:52:21;29.40;78.40
69901;DHT22;57183;50.930;5.406;2023-06-10T09:54:48;29.40;75.10
69901;DHT22;57183;50.930;5.406;2023-06-10T09:57:13;29.40;76.60
69901;DHT22;57183;50.930;5.406;2023-06-10T09:59:41;29.60;78.10
69901;DHT22;57183;50.930;5.406;2023-06-10T10:02:16;29.70;76.40
69901;DHT22;57183;50.930;5.406;2023-06-10T10:04:42;29.80;75.00
69901;DHT22;57183;50.930;5.406;2023-06-10T10:07:08;29.70;73.50
69901;DHT22;57183;50.930;5.406;2023-06-10T10:09:44;29.70;74.60
69901;DHT22;57183;50.930;5.406;2023-06-10T10:12:12;29.70;75.20
69901;DHT22;57183;50.930;5.406;2023-06-10T10:14:39;29.80;74.50
69901;DHT22;57183;50.930;5.406;2023-06-10T10:17:09;29.60;73.50
69901;DHT22;57183;50.930;5.406;2023-06-10T10:19:46;29.70;74.30
69901;DHT22;57183;50.930;5.406;2023-06-10T10:22:26;29.80;74.10
69901;DHT22;57183;50.930;5.406;2023-06-10T10:25:02;29.90;72.00
69901;DHT22;57183;50.930;5.406;2023-06-10T10:27:35;29.90;71.50
69901;DHT22;57183;50.930;5.406;2023-06-10T10:30:02;29.80;70.30
69901;DHT22;57183;50.930;5.406;2023-06-10T10:32:34;29.80;68.90
69901;DHT22;57183;50.930;5.406;2023-06-10T10:35:08;29.60;68.60
69901;DHT22;57183;50.930;5.406;2023-06-10T10:37:35;29.50;70.00
69901;DHT22;57183;50.930;5.406;2023-06-10T10:40:02;29.70;66.90
69901;DHT22;57183;50.930;5.406;2023-06-10T10:42:30;29.90;68.20
69901;DHT22;57183;50.930;5.406;2023-06-10T10:44:56;29.80;68.50
69901;DHT22;57183;50.930;5.406;2023-06-10T10:47:22;29.70;67.50
69901;DHT22;57183;50.930;5.406;2023-06-10T10:49:51;29.80;68.90
69901;DHT22;57183;50.930;5.406;2023-06-10T10:52:20;29.90;66.10
69901;DHT22;57183;50.930;5.406;2023-06-10T10:54:46;30.00;68.50
69901;DHT22;57183;50.930;5.406;2023-06-10T10:57:17;30.20;67.20
69901;DHT22;57183;50.930;5.406;2023-06-10T11:02:35;29.90;66.30
69901;DHT22;57183;50.930;5.406;2023-06-10T11:05:01;29.70;66.90
69901;DHT22;57183;50.930;5.406;2023-06-10T11:07:30;29.80;67.20
69901;DHT22;57183;50.930;5.406;2023-06-10T11:10:06;30.00;67.30
69901;DHT22;57183;50.930;5.406;2023-06-10T11:12:51;29.90;67.20
69901;DHT22;57183;50.930;5.406;2023-06-10T11:15:22;29.80;64.10
69901;DHT22;57183;50.930;5.406;2023-06-10T11:20:56;29.90;66.00
69901;DHT22;57183;50.930;5.406;2023-06-10T11:25:51;29.80;64.90
69901;DHT22;57183;50.930;5.406;2023-06-10T11:28:21;29.90;65.00
69901;DHT22;57183;50.930;5.406;2023-06-10T11:30:57;30.00;66.90
69901;DHT22;57183;50.930;5.406;2023-06-10T11:33:23;29.90;62.50
69901;DHT22;57183;50.930;5.406;2023-06-10T11:35:50;30.10;62.90
69901;DHT22;57183;50.930;5.406;2023-06-10T11:38:15;30.20;65.50
69901;DHT22;57183;50.930;5.406;2023-06-10T11:40:49;30.30;63.60
69901;DHT22;57183;50.930;5.406;2023-06-10T11:43:19;30.30;62.20
69901;DHT22;57183;50.930;5.406;2023-06-10T11:45:45;30.30;61.60
69901;DHT22;57183;50.930;5.406;2023-06-10T11:48:12;30.30;61.50
69901;DHT22;57183;50.930;5.406;2023-06-10T11:50:38;30.20;59.90
69901;DHT22;57183;50.930;5.406;2023-06-10T11:53:04;30.10;58.50
69901;DHT22;57183;50.930;5.406;2023-06-10T11:55:43;30.20;59.40
69901;DHT22;57183;50.930;5.406;2023-06-10T11:58:19;30.30;62.30
69901;DHT22;57183;50.930;5.406;2023-06-10T12:03:12;30.50;58.80
69901;DHT22;57183;50.930;5.406;2023-06-10T12:05:38;30.40;57.20
69901;DHT22;57183;50.930;5.406;2023-06-10T12:08:10;30.40;58.10
69901;DHT22;57183;50.930;5.406;2023-06-10T12:10:42;30.20;57.70
69901;DHT22;57183;50.930;5.406;2023-06-10T12:13:11;30.00;59.70
69901;DHT22;57183;50.930;5.406;2023-06-10T12:15:37;30.10;57.80
69901;DHT22;57183;50.930;5.406;2023-06-10T12:18:03;30.30;57.60
69901;DHT22;57183;50.930;5.406;2023-06-10T12:20:31;30.30;58.80
69901;DHT22;57183;50.930;5.406;2023-06-10T12:23:01;30.50;58.30
69901;DHT22;57183;50.930;5.406;2023-06-10T12:25:33;30.80;59.00
69901;DHT22;57183;50.930;5.406;2023-06-10T12:27:59;30.60;59.70
69901;DHT22;57183;50.930;5.406;2023-06-10T12:30:26;30.60;59.60
69901;DHT22;57183;50.930;5.406;2023-06-10T12:32:53;30.40;59.20
69901;DHT22;57183;50.930;5.406;2023-06-10T12:35:26;30.50;60.00
69901;DHT22;57183;50.930;5.406;2023-06-10T12:38:00;30.80;58.30
69901;DHT22;57183;50.930;5.406;2023-06-10T12:40:31;30.90;57.50
69901;DHT22;57183;50.930;5.406;2023-06-10T12:42:58;30.90;57.70
69901;DHT22;57183;50.930;5.406;2023-06-10T12:45:30;30.90;57.20
69901;DHT22;57183;50.930;5.406;2023-06-10T12:48:19;30.70;57.20
69901;DHT22;57183;50.930;5.406;2023-06-10T12:50:50;30.80;58.20
69901;DHT22;57183;50.930;5.406;2023-06-10T12:53:16;30.60;56.60
69901;DHT22;57183;50.930;5.406;2023-06-10T12:55:42;30.40;56.80
69901;DHT22;57183;50.930;5.406;2023-06-10T12:58:10;30.40;58.60
69901;DHT22;57183;50.930;5.406;2023-06-10T13:00:36;30.60;57.60
69901;DHT22;57183;50.930;5.406;2023-06-10T13:03:02;30.90;59.00
69901;DHT22;57183;50.930;5.406;2023-06-10T13:05:28;31.20;58.60
69901;DHT22;57183;50.930;5.406;2023-06-10T13:07:55;31.20;56.10
69901;DHT22;57183;50.930;5.406;2023-06-10T13:10:21;31.30;57.40
69901;DHT22;57183;50.930;5.406;2023-06-10T13:12:47;31.20;55.10
69901;DHT22;57183;50.930;5.406;2023-06-10T13:15:13;31.40;55.40
69901;DHT22;57183;50.930;5.406;2023-06-10T13:17:40;31.30;55.90
69901;DHT22;57183;50.930;5.406;2023-06-10T13:20:06;31.00;55.60
69901;DHT22;57183;50.930;5.406;2023-06-10T13:22:33;31.00;56.70
69901;DHT22;57183;50.930;5.406;2023-06-10T13:25:00;30.90;55.90
69901;DHT22;57183;50.930;5.406;2023-06-10T13:27:26;31.00;55.80
69901;DHT22;57183;50.930;5.406;2023-06-10T13:29:52;31.10;56.90
69901;DHT22;57183;50.930;5.406;2023-06-10T13:32:18;31.20;56.70
69901;DHT22;57183;50.930;5.406;2023-06-10T13:34:44;31.50;56.80
69901;DHT22;57183;50.930;5.406;2023-06-10T13:37:09;31.60;57.00
69901;DHT22;57183;50.930;5.406;2023-06-10T13:39:35;31.70;54.70
69901;DHT22;57183;50.930;5.406;2023-06-10T13:42:01;31.20;55.80
69901;DHT22;57183;50.930;5.406;2023-06-10T13:44:27;31.10;56.40
69901;DHT22;57183;50.930;5.406;2023-06-10T13:46:56;31.90;57.30
69901;DHT22;57183;50.930;5.406;2023-06-10T13:49:22;33.60;53.00
69901;DHT22;57183;50.930;5.406;2023-06-10T13:51:47;35.40;52.40
69901;DHT22;57183;50.930;5.406;2023-06-10T13:54:14;36.50;49.60
69901;DHT22;57183;50.930;5.406;2023-06-10T13:56:41;37.70;47.50
69901;DHT22;57183;50.930;5.406;2023-06-10T13:59:06;38.30;46.40
69901;DHT22;57183;50.930;5.406;2023-06-10T14:01:32;38.40;44.90
69901;DHT22;57183;50.930;5.406;2023-06-10T14:03:58;39.20;43.80
69901;DHT22;57183;50.930;5.406;2023-06-10T14:06:24;39.30;43.70
69901;DHT22;57183;50.930;5.406;2023-06-10T14:08:49;40.20;42.10
69901;DHT22;57183;50.930;5.406;2023-06-10T14:11:15;40.00;41.20
69901;DHT22;57183;50.930;5.406;2023-06-10T14:13:41;40.90;41.40
69901;DHT22;57183;50.930;5.406;2023-06-10T14:16:06;40.00;41.10
69901;DHT22;57183;50.930;5.406;2023-06-10T14:18:32;39.80;41.50
69901;DHT22;57183;50.930;5.406;2023-06-10T14:20:58;40.20;42.80
69901;DHT22;57183;50.930;5.406;2023-06-10T14:23:23;41.00;39.60
69901;DHT22;57183;50.930;5.406;2023-06-10T14:25:52;40.80;40.40
69901;DHT22;57183;50.930;5.406;2023-06-10T14:28:18;39.40;40.60
69901;DHT22;57183;50.930;5.406;2023-06-10T14:30:43;38.30;41.80
69901;DHT22;57183;50.930;5.406;2023-06-10T14:33:09;38.50;42.30
69901;DHT22;57183;50.930;5.406;2023-06-10T14:35:34;37.80;41.80
69901;DHT22;57183;50.930;5.406;2023-06-10T14:38:00;37.60;41.90
69901;DHT22;57183;50.930;5.406;2023-06-10T14:40:26;38.40;41.90
69901;DHT22;57183;50.930;5.406;2023-06-10T14:42:57;38.10;41.90
69901;DHT22;57183;50.930;5.406;2023-06-10T14:45:22;37.70;42.90
69901;DHT22;57183;50.930;5.406;2023-06-10T14:47:48;38.70;42.70
69901;DHT22;57183;50.930;5.406;2023-06-10T14:50:14;39.00;41.30
69901;DHT22;57183;50.930;5.406;2023-06-10T14:52:40;39.80;42.30
69901;DHT22;57183;50.930;5.406;2023-06-10T14:55:06;40.90;40.60
69901;DHT22;57183;50.930;5.406;2023-06-10T14:57:32;40.90;39.30
69901;DHT22;57183;50.930;5.406;2023-06-10T14:59:57;40.30;39.80
69901;DHT22;57183;50.930;5.406;2023-06-10T15:02:23;39.40;40.00
69901;DHT22;57183;50.930;5.406;2023-06-10T15:04:49;39.60;40.80
69901;DHT22;57183;50.930;5.406;2023-06-10T15:07:14;38.30;42.60
69901;DHT22;57183;50.930;5.406;2023-06-10T15:09:41;38.80;43.60
69901;DHT22;57183;50.930;5.406;2023-06-10T15:12:08;38.60;42.30
69901;DHT22;57183;50.930;5.406;2023-06-10T15:14:34;37.70;43.80
69901;DHT22;57183;50.930;5.406;2023-06-10T15:16:59;36.10;45.70
69901;DHT22;57183;50.930;5.406;2023-06-10T15:19:26;35.90;46.00
69901;DHT22;57183;50.930;5.406;2023-06-10T15:21:52;37.00;45.30
69901;DHT22;57183;50.930;5.406;2023-06-10T15:24:18;37.50;44.70
69901;DHT22;57183;50.930;5.406;2023-06-10T15:26:44;37.30;44.90
69901;DHT22;57183;50.930;5.406;2023-06-10T15:29:10;36.10;46.00
69901;DHT22;57183;50.930;5.406;2023-06-10T15:31:36;35.70;46.30
69901;DHT22;57183;50.930;5.406;2023-06-10T15:34:02;36.30;46.80
69901;DHT22;57183;50.930;5.406;2023-06-10T15:36:27;36.90;46.20
69901;DHT22;57183;50.930;5.406;2023-06-10T15:38:54;37.80;44.50
69901;DHT22;57183;50.930;5.406;2023-06-10T15:41:20;38.40;45.00
69901;DHT22;57183;50.930;5.406;2023-06-10T15:43:46;39.20;45.20
69901;DHT22;57183;50.930;5.406;2023-06-10T15:46:12;39.00;43.50
69901;DHT22;57183;50.930;5.406;2023-06-10T15:48:37;39.90;43.10